OMSJ/SHJ METAR and TAF weather

Enter ICAO airport designator
Station Type Date Time Source
OMSJ METAR 2019/10/23 21:00 UTC NOAA

OMSJ 232100Z 08002KT 4000 HZ NSC 25/23 Q1010 BECMG 3000 BR


Station Type Date Time Source
OMSJ Decoded METAR 2019/10/23 21:00 UTC NOAA

Sharjah International Airport, United Arab Emirates (OMSJ) 25-20N 055-31E 33M
Oct 23, 2019 - 05:00 PM EDT / 2019.10.23 2100 UTC
Wind: from the E (080 degrees) at 2 MPH (2 KT):0
Visibility: 2 mile(s):0
Weather: haze
Temperature: 77 F (25 C)
Dew Point: 73 F (23 C)
Relative Humidity: 88%
Pressure (altimeter): 29.83 in. Hg (1010 hPa)
ob: OMSJ 232100Z 08002KT 4000 HZ NSC 25/23 Q1010 BECMG 3000 BR
cycle: 21

Station Type Date Time Source
OMSJ TAF 2019/10/23 18:05 UTC NOAA

TAF OMSJ 231652Z 2318/2500 10005KT 6000 NSC PROB40 2319/2405 3000 HZ PROB30 2322/2404 0100 FG VV///
BECMG 2408/2410 35014KT
BECMG 2416/2418 10005KT PROB30 2421/2500 4000 HZ

Example: see airport list